Weather at Hamburg Helmut Schmidt Airport

Public forecast

Using degrees Celsius for public forecast. Weather courtesy of forecast.io.

Current aviation weather report (METAR) for Hamburg Helmut Schmidt Airport

Retrieved 2021/09/16 18:20 UTC (35 minutes ago):

EDDH 161820Z 26009KT 230V290 9999 VCSH FEW008 FEW010CB BKN014 16/15 Q1012 TEMPO 28015G25KT 4500 SHRA

Aviation forecast (TAF) for Hamburg Helmut Schmidt Airport

Retrieved 2021/09/16 18:36 UTC (19 minutes ago):

TAF TAF EDDH 161700Z 1618/1724 27007KT 9999 BKN015 PROB30 TEMPO 1618/1622 28015G25KT 4500 SHRA BKN013CB TEMPO 1622/1704 BKN010 TEMPO 1704/1708 BKN007 PROB30 TEMPO 1704/1706 4500 BR BECMG 1709/1712 33010KT BECMG 1716/1718 30004KT BECMG 1721/1724 4000 BR BKN007